Atlantic - Newfoundland: Past 24 Hour Conditions

 

St. John's Int'l Airport

07:30 AM NDT 31 August 2014
This table is a summary of hourly weather conditions for the past 24 hours.
Date / Time
(NDT)
Wind(knots) Conditions Visibility(km) Pressure(kPa) Air tempC) Relative humidity(%) Dew pointC)
31 August 2014
7:30 WSW 19 gust 27 Light Rainshower 24 101.8 15 88 13
6:30 WSW 21 gust 28 Mostly Cloudy 24 101.8 14 87 12
5:30 WSW 20 gust 29 Cloudy 24 101.8 14 88 12
4:30 WSW 19 gust 29 Mostly Cloudy 24 101.8 14 88 12
3:30 WSW 21 gust 30 Mostly Cloudy 24 101.9 14 87 12
2:30 WSW 19 gust 27 Mostly Cloudy 24 101.9 14 87 11
1:30 SW 16 gust 23 Cloudy 24 101.9 13 87 11
0:30 WSW 18 gust 27 Mostly Cloudy 24 102.0 13 79 10
30 August 2014
23:30 WSW 17 gust 25 Partly Cloudy 24 102.0 13 78 9
22:30 WSW 19 gust 25 Partly Cloudy 24 102.0 13 76 9
21:30 WSW 21 gust 27 Partly Cloudy 24 102.0 14 77 10
20:30 WSW 20 gust 27 Mostly Cloudy 24 102.0 14 77 10
19:30 WSW 17 gust 26 Partly Cloudy 24 102.0 15 63 8
18:30 WSW 20 gust 28 Mostly Cloudy 24 102.0 16 57 8
17:30 WSW 16 gust 24 Mostly Cloudy 24 102.0 18 56 9
16:30 WSW 13 gust 23 Partly Cloudy 24 102.0 19 53 10
15:30 W 12 gust 21 Partly Cloudy 24 102.0 19 55 10
14:30 W 18 Mainly Sunny 24 102.0 19 54 9
13:30 W 18 gust 23 Mainly Sunny 24 102.0 18 54 8
12:30 W 16 gust 25 Partly Cloudy 24 102.0 17 58 9
11:30 WSW 16 gust 24 Mainly Sunny 24 102.0 16 56 7
10:30 WSW 14 Mainly Sunny 24 102.1 14 59 6
9:30 WSW 10 gust 16 Mainly Sunny 24 102.0 12 67 6
8:30 W 13 Sunny 24 102.0 9 81 6
7:30 W 10 Mainly Sunny 24 102.0 7 89 6
 
Map of Atlantic - Newfoundland marine weather areas Southwestern Grand Banks - 44138 Banquereau - 44139 Tail of the Bank - 44140 Nickerson Bank - 44251 Northeast Burgeo Bank - 44255 Blanc-Sablon Airport Cap Whittle Chevery Natashquan Airport Heath Point Miscou Island Grand Étang Ingonish Beach North Mountain St.Paul Island J.A. Douglas McCurdy Sydney Airport Charlottetown Airport East Point North Cape Argentia Bonavista Burgeo Cape Race Corner Brook Daniel's Harbour Englee Ferolle Point La Scie Port aux Basques Rocky Harbour Sagona Island St. Anthony Airport St. John's Int'l Airport St. Lawrence Stephenville Airport Twillingate Winterland Wreckhouse Cartwright Airport Mary's Harbour Grates Cove Pool's Island Marticot Island Long Pond Îles de la Madeleine Airport
Legend: buoyBuoy land stationLand Station